sensor_id;sensor_type;location;lat;lon;timestamp;pressure;altitude;pressure_sealevel;temperature
65765;BMP180;52915;53.718;19.946;2023-02-28T00:00:24;101867.00;;;-2.94
65765;BMP180;52915;53.718;19.946;2023-02-28T00:06:41;101866.40;;;-3.10
65765;BMP180;52915;53.718;19.946;2023-02-28T00:11:45;101858.60;;;-3.20
65765;BMP180;52915;53.718;19.946;2023-02-28T00:16:48;101862.60;;;-3.40
65765;BMP180;52915;53.718;19.946;2023-02-28T00:21:52;101857.80;;;-3.50
65765;BMP180;52915;53.718;19.946;2023-02-28T00:26:56;101857.80;;;-3.60
65765;BMP180;52915;53.718;19.946;2023-02-28T00:31:59;101855.00;;;-3.70
65765;BMP180;52915;53.718;19.946;2023-02-28T00:37:09;101855.60;;;-3.70
65765;BMP180;52915;53.718;19.946;2023-02-28T00:42:15;101865.00;;;-3.42
65765;BMP180;52915;53.718;19.946;2023-02-28T00:47:19;101867.00;;;-3.20
65765;BMP180;52915;53.718;19.946;2023-02-28T00:59:30;101851.80;;;-3.50
65765;BMP180;52915;53.718;19.946;2023-02-28T01:04:34;101854.80;;;-3.70
65765;BMP180;52915;53.718;19.946;2023-02-28T01:16:34;101859.60;;;-4.00
65765;BMP180;52915;53.718;19.946;2023-02-28T01:21:38;101859.40;;;-4.06
65765;BMP180;52915;53.718;19.946;2023-02-28T01:26:48;101856.40;;;-4.18
65765;BMP180;52915;53.718;19.946;2023-02-28T01:31:51;101852.40;;;-4.24
65765;BMP180;52915;53.718;19.946;2023-02-28T01:36:55;101855.20;;;-4.16
65765;BMP180;52915;53.718;19.946;2023-02-28T01:41:59;101860.60;;;-3.82
65765;BMP180;52915;53.718;19.946;2023-02-28T01:47:18;101861.60;;;-3.70
65765;BMP180;52915;53.718;19.946;2023-02-28T01:52:22;101856.20;;;-3.80
65765;BMP180;52915;53.718;19.946;2023-02-28T01:57:43;101866.00;;;-3.90
65765;BMP180;52915;53.718;19.946;2023-02-28T02:02:54;101858.00;;;-4.00
65765;BMP180;52915;53.718;19.946;2023-02-28T02:08:06;101853.60;;;-4.12
65765;BMP180;52915;53.718;19.946;2023-02-28T02:18:52;101851.80;;;-4.40
65765;BMP180;52915;53.718;19.946;2023-02-28T02:35:50;101864.20;;;-4.40
65765;BMP180;52915;53.718;19.946;2023-02-28T02:41:41;101862.40;;;-4.12
65765;BMP180;52915;53.718;19.946;2023-02-28T02:46:51;101862.20;;;-4.20
65765;BMP180;52915;53.718;19.946;2023-02-28T02:52:03;101868.00;;;-4.30
65765;BMP180;52915;53.718;19.946;2023-02-28T02:57:22;101855.60;;;-4.40
65765;BMP180;52915;53.718;19.946;2023-02-28T03:02:29;101849.60;;;-4.60
65765;BMP180;52915;53.718;19.946;2023-02-28T03:07:37;101861.40;;;-4.68
65765;BMP180;52915;53.718;19.946;2023-02-28T03:20:24;101867.40;;;-4.90
65765;BMP180;52915;53.718;19.946;2023-02-28T03:26:22;101873.20;;;-5.00
65765;BMP180;52915;53.718;19.946;2023-02-28T03:31:43;101872.60;;;-4.90
65765;BMP180;52915;53.718;19.946;2023-02-28T03:36:55;101873.80;;;-4.54
65765;BMP180;52915;53.718;19.946;2023-02-28T03:42:07;101884.80;;;-4.30
65765;BMP180;52915;53.718;19.946;2023-02-28T03:47:26;101879.00;;;-4.10
65765;BMP180;52915;53.718;19.946;2023-02-28T03:52:35;101881.80;;;-4.00
65765;BMP180;52915;53.718;19.946;2023-02-28T04:16:21;101882.20;;;-4.80
65765;BMP180;52915;53.718;19.946;2023-02-28T04:22:27;101874.40;;;-4.92
65765;BMP180;52915;53.718;19.946;2023-02-28T04:27:34;101873.20;;;-5.10
65765;BMP180;52915;53.718;19.946;2023-02-28T04:32:37;101873.60;;;-5.20
65765;BMP180;52915;53.718;19.946;2023-02-28T04:37:41;101869.20;;;-5.30
65765;BMP180;52915;53.718;19.946;2023-02-28T04:42:45;101872.00;;;-5.30
65765;BMP180;52915;53.718;19.946;2023-02-28T04:47:48;101865.40;;;-5.10
65765;BMP180;52915;53.718;19.946;2023-02-28T04:52:52;101862.20;;;-4.86
65765;BMP180;52915;53.718;19.946;2023-02-28T04:57:55;101867.20;;;-4.60
65765;BMP180;52915;53.718;19.946;2023-02-28T05:03:02;101873.80;;;-4.40
65765;BMP180;52915;53.718;19.946;2023-02-28T05:08:06;101859.60;;;-4.40
65765;BMP180;52915;53.718;19.946;2023-02-28T05:13:35;101862.00;;;-4.54
65765;BMP180;52915;53.718;19.946;2023-02-28T05:18:39;101870.40;;;-4.72
65765;BMP180;52915;53.718;19.946;2023-02-28T05:23:43;101865.40;;;-4.90
65765;BMP180;52915;53.718;19.946;2023-02-28T05:28:50;101870.60;;;-5.00
65765;BMP180;52915;53.718;19.946;2023-02-28T05:33:53;101874.80;;;-5.20
65765;BMP180;52915;53.718;19.946;2023-02-28T05:49:29;101884.20;;;-4.98
65765;BMP180;52915;53.718;19.946;2023-02-28T05:54:33;101884.00;;;-4.80
65765;BMP180;52915;53.718;19.946;2023-02-28T05:59:43;101886.40;;;-4.60
65765;BMP180;52915;53.718;19.946;2023-02-28T06:04:47;101898.00;;;-4.68
65765;BMP180;52915;53.718;19.946;2023-02-28T06:09:51;101904.20;;;-4.68
65765;BMP180;52915;53.718;19.946;2023-02-28T06:14:54;101905.40;;;-4.60
65765;BMP180;52915;53.718;19.946;2023-02-28T06:20:16;101918.00;;;-4.50
65765;BMP180;52915;53.718;19.946;2023-02-28T06:25:20;101920.20;;;-4.30
65765;BMP180;52915;53.718;19.946;2023-02-28T06:30:27;101930.00;;;-4.00
65765;BMP180;52915;53.718;19.946;2023-02-28T06:49:39;101918.80;;;-2.30
65765;BMP180;52915;53.718;19.946;2023-02-28T06:54:43;101917.60;;;-2.10
65765;BMP180;52915;53.718;19.946;2023-02-28T07:00:12;101916.20;;;-1.80
65765;BMP180;52915;53.718;19.946;2023-02-28T07:05:41;101911.60;;;-1.40
65765;BMP180;52915;53.718;19.946;2023-02-28T07:25:15;101905.40;;;-0.30
65765;BMP180;52915;53.718;19.946;2023-02-28T07:30:19;101914.80;;;0.00
65765;BMP180;52915;53.718;19.946;2023-02-28T07:35:49;101913.00;;;0.60
65765;BMP180;52915;53.718;19.946;2023-02-28T07:55:08;101896.00;;;1.70
65765;BMP180;52915;53.718;19.946;2023-02-28T08:00:13;101896.60;;;1.80
65765;BMP180;52915;53.718;19.946;2023-02-28T08:05:48;101897.40;;;2.00
65765;BMP180;52915;53.718;19.946;2023-02-28T08:17:12;101906.20;;;2.94
65765;BMP180;52915;53.718;19.946;2023-02-28T08:42:05;101919.40;;;4.50
65765;BMP180;52915;53.718;19.946;2023-02-28T09:01:10;101932.20;;;5.80
65765;BMP180;52915;53.718;19.946;2023-02-28T09:06:17;101936.40;;;6.20
65765;BMP180;52915;53.718;19.946;2023-02-28T09:11:46;101933.40;;;6.70
65765;BMP180;52915;53.718;19.946;2023-02-28T09:16:50;101933.20;;;7.00
65765;BMP180;52915;53.718;19.946;2023-02-28T09:22:20;101923.40;;;7.10
65765;BMP180;52915;53.718;19.946;2023-02-28T09:28:21;101916.60;;;7.30
65765;BMP180;52915;53.718;19.946;2023-02-28T09:33:52;101919.00;;;7.30
65765;BMP180;52915;53.718;19.946;2023-02-28T09:39:07;101917.40;;;7.20
65765;BMP180;52915;53.718;19.946;2023-02-28T09:45:05;101911.20;;;7.30
65765;BMP180;52915;53.718;19.946;2023-02-28T09:50:38;101917.60;;;7.62
65765;BMP180;52915;53.718;19.946;2023-02-28T09:55:58;101921.40;;;8.14
65765;BMP180;52915;53.718;19.946;2023-02-28T10:01:23;101916.80;;;8.30
65765;BMP180;52915;53.718;19.946;2023-02-28T10:06:54;101903.80;;;8.50
65765;BMP180;52915;53.718;19.946;2023-02-28T10:19:15;101892.40;;;9.30
65765;BMP180;52915;53.718;19.946;2023-02-28T10:24:49;101892.80;;;9.50
65765;BMP180;52915;53.718;19.946;2023-02-28T10:36:41;101868.40;;;9.48
65765;BMP180;52915;53.718;19.946;2023-02-28T10:42:24;101876.80;;;9.40
65765;BMP180;52915;53.718;19.946;2023-02-28T10:55:20;101884.00;;;9.60
65765;BMP180;52915;53.718;19.946;2023-02-28T11:00:32;101884.40;;;9.50
65765;BMP180;52915;53.718;19.946;2023-02-28T11:12:28;101890.60;;;9.66
65765;BMP180;52915;53.718;19.946;2023-02-28T11:17:38;101882.40;;;9.70
65765;BMP180;52915;53.718;19.946;2023-02-28T11:29:23;101882.40;;;10.50
65765;BMP180;52915;53.718;19.946;2023-02-28T12:24:27;101811.60;;;10.70
65765;BMP180;52915;53.718;19.946;2023-02-28T12:36:43;101807.00;;;10.60
65765;BMP180;52915;53.718;19.946;2023-02-28T12:42:46;101804.40;;;10.88
65765;BMP180;52915;53.718;19.946;2023-02-28T13:00:21;101803.20;;;10.80
65765;BMP180;52915;53.718;19.946;2023-02-28T13:11:40;101790.20;;;11.50
65765;BMP180;52915;53.718;19.946;2023-02-28T13:22:47;101777.20;;;13.92
65765;BMP180;52915;53.718;19.946;2023-02-28T13:37:42;101755.40;;;20.44
65765;BMP180;52915;53.718;19.946;2023-02-28T13:43:20;101724.00;;;23.30
65765;BMP180;52915;53.718;19.946;2023-02-28T13:48:41;101711.80;;;25.56
65765;BMP180;52915;53.718;19.946;2023-02-28T14:37:39;101667.60;;;27.80
65765;BMP180;52915;53.718;19.946;2023-02-28T14:43:15;101663.40;;;27.30
65765;BMP180;52915;53.718;19.946;2023-02-28T14:48:23;101670.00;;;27.40
65765;BMP180;52915;53.718;19.946;2023-02-28T14:53:35;101681.60;;;26.80
65765;BMP180;52915;53.718;19.946;2023-02-28T14:58:40;101686.80;;;26.20
65765;BMP180;52915;53.718;19.946;2023-02-28T15:03:43;101695.20;;;25.40
65765;BMP180;52915;53.718;19.946;2023-02-28T15:08:48;101707.40;;;24.14
65765;BMP180;52915;53.718;19.946;2023-02-28T15:14:21;101713.80;;;22.78
65765;BMP180;52915;53.718;19.946;2023-02-28T15:19:48;101706.80;;;21.74
65765;BMP180;52915;53.718;19.946;2023-02-28T15:24:56;101772.80;;;18.40
65765;BMP180;52915;53.718;19.946;2023-02-28T15:30:20;101768.40;;;14.84
65765;BMP180;52915;53.718;19.946;2023-02-28T15:35:38;101758.80;;;12.56
65765;BMP180;52915;53.718;19.946;2023-02-28T15:40:56;101745.00;;;11.06
65765;BMP180;52915;53.718;19.946;2023-02-28T15:46:13;101744.60;;;9.80
65765;BMP180;52915;53.718;19.946;2023-02-28T15:51:36;101739.40;;;8.70
65765;BMP180;52915;53.718;19.946;2023-02-28T15:56:54;101736.20;;;7.98
65765;BMP180;52915;53.718;19.946;2023-02-28T16:02:21;101731.80;;;7.30
65765;BMP180;52915;53.718;19.946;2023-02-28T16:07:26;101729.40;;;6.80
65765;BMP180;52915;53.718;19.946;2023-02-28T16:12:36;101726.00;;;6.40
65765;BMP180;52915;53.718;19.946;2023-02-28T16:32:38;101709.60;;;4.80
65765;BMP180;52915;53.718;19.946;2023-02-28T16:37:44;101696.00;;;4.42
65765;BMP180;52915;53.718;19.946;2023-02-28T16:42:51;101680.40;;;4.12
65765;BMP180;52915;53.718;19.946;2023-02-28T16:47:57;101685.20;;;3.90
65765;BMP180;52915;53.718;19.946;2023-02-28T16:53:04;101678.20;;;3.60
65765;BMP180;52915;53.718;19.946;2023-02-28T16:58:16;101680.20;;;3.30
65765;BMP180;52915;53.718;19.946;2023-02-28T17:13:40;101685.80;;;2.64
65765;BMP180;52915;53.718;19.946;2023-02-28T17:18:44;101685.20;;;2.54
65765;BMP180;52915;53.718;19.946;2023-02-28T17:30:56;101672.80;;;2.10
65765;BMP180;52915;53.718;19.946;2023-02-28T17:36:00;101679.00;;;1.98
65765;BMP180;52915;53.718;19.946;2023-02-28T17:41:05;101680.20;;;1.80
65765;BMP180;52915;53.718;19.946;2023-02-28T17:46:20;101680.60;;;1.60
65765;BMP180;52915;53.718;19.946;2023-02-28T17:51:25;101672.60;;;1.40
65765;BMP180;52915;53.718;19.946;2023-02-28T18:03:53;101679.80;;;1.10
65765;BMP180;52915;53.718;19.946;2023-02-28T18:08:59;101679.80;;;1.00
65765;BMP180;52915;53.718;19.946;2023-02-28T18:14:05;101672.40;;;0.90
65765;BMP180;52915;53.718;19.946;2023-02-28T18:19:10;101675.60;;;0.80
65765;BMP180;52915;53.718;19.946;2023-02-28T18:24:20;101678.60;;;0.66
65765;BMP180;52915;53.718;19.946;2023-02-28T18:43:15;101693.00;;;0.22
65765;BMP180;52915;53.718;19.946;2023-02-28T18:48:20;101695.60;;;0.20
65765;BMP180;52915;53.718;19.946;2023-02-28T19:07:26;101663.80;;;-0.10
65765;BMP180;52915;53.718;19.946;2023-02-28T19:32:12;101677.20;;;-0.30
65765;BMP180;52915;53.718;19.946;2023-02-28T19:38:07;101679.80;;;-0.40
65765;BMP180;52915;53.718;19.946;2023-02-28T19:43:11;101687.20;;;-0.50
65765;BMP180;52915;53.718;19.946;2023-02-28T19:48:16;101681.40;;;-0.50
65765;BMP180;52915;53.718;19.946;2023-02-28T19:53:24;101675.40;;;-0.60
65765;BMP180;52915;53.718;19.946;2023-02-28T19:58:51;101665.40;;;-0.54
65765;BMP180;52915;53.718;19.946;2023-02-28T20:03:55;101671.20;;;-0.54
65765;BMP180;52915;53.718;19.946;2023-02-28T20:08:59;101675.40;;;-0.56
65765;BMP180;52915;53.718;19.946;2023-02-28T20:14:03;101670.80;;;-0.60
65765;BMP180;52915;53.718;19.946;2023-02-28T20:19:08;101676.40;;;-0.60
65765;BMP180;52915;53.718;19.946;2023-02-28T20:24:12;101672.40;;;-0.66
65765;BMP180;52915;53.718;19.946;2023-02-28T20:29:16;101667.00;;;-0.60
65765;BMP180;52915;53.718;19.946;2023-02-28T20:34:20;101670.20;;;-0.60
65765;BMP180;52915;53.718;19.946;2023-02-28T20:45:22;101664.80;;;-0.50
65765;BMP180;52915;53.718;19.946;2023-02-28T20:50:26;101675.00;;;-0.50
65765;BMP180;52915;53.718;19.946;2023-02-28T20:55:30;101668.40;;;-0.54
65765;BMP180;52915;53.718;19.946;2023-02-28T21:14:56;101646.40;;;-0.50
65765;BMP180;52915;53.718;19.946;2023-02-28T21:20:00;101630.80;;;-0.50
65765;BMP180;52915;53.718;19.946;2023-02-28T21:25:04;101626.60;;;-0.52
65765;BMP180;52915;53.718;19.946;2023-02-28T21:30:33;101624.60;;;-0.50
65765;BMP180;52915;53.718;19.946;2023-02-28T21:35:36;101624.00;;;-0.60
65765;BMP180;52915;53.718;19.946;2023-02-28T21:40:40;101621.00;;;-0.70
65765;BMP180;52915;53.718;19.946;2023-02-28T21:45:45;101632.00;;;-0.70
65765;BMP180;52915;53.718;19.946;2023-02-28T21:50:56;101638.40;;;-0.70
65765;BMP180;52915;53.718;19.946;2023-02-28T22:01:16;101644.20;;;-0.20
65765;BMP180;52915;53.718;19.946;2023-02-28T22:06:27;101627.80;;;0.10
65765;BMP180;52915;53.718;19.946;2023-02-28T22:11:35;101612.60;;;0.08
65765;BMP180;52915;53.718;19.946;2023-02-28T22:16:40;101603.00;;;-0.10
65765;BMP180;52915;53.718;19.946;2023-02-28T22:22:46;101592.80;;;-0.30
65765;BMP180;52915;53.718;19.946;2023-02-28T22:27:50;101589.20;;;-0.40
65765;BMP180;52915;53.718;19.946;2023-02-28T22:32:54;101588.20;;;-0.44
65765;BMP180;52915;53.718;19.946;2023-02-28T22:51:34;101595.60;;;-0.60
65765;BMP180;52915;53.718;19.946;2023-02-28T22:57:28;101595.20;;;-0.60
65765;BMP180;52915;53.718;19.946;2023-02-28T23:02:33;101595.40;;;-0.60
65765;BMP180;52915;53.718;19.946;2023-02-28T23:07:39;101587.00;;;-0.60
65765;BMP180;52915;53.718;19.946;2023-02-28T23:12:43;101583.80;;;-0.44
65765;BMP180;52915;53.718;19.946;2023-02-28T23:17:53;101593.00;;;-0.18
65765;BMP180;52915;53.718;19.946;2023-02-28T23:22:57;101585.00;;;0.00
65765;BMP180;52915;53.718;19.946;2023-02-28T23:28:01;101582.60;;;-0.10
65765;BMP180;52915;53.718;19.946;2023-02-28T23:33:05;101575.60;;;-0.28
65765;BMP180;52915;53.718;19.946;2023-02-28T23:38:09;101579.40;;;-0.40
65765;BMP180;52915;53.718;19.946;2023-02-28T23:43:13;101590.00;;;-0.50
65765;BMP180;52915;53.718;19.946;2023-02-28T23:48:16;101588.00;;;-0.50
65765;BMP180;52915;53.718;19.946;2023-02-28T23:53:20;101597.40;;;-0.60
65765;BMP180;52915;53.718;19.946;2023-02-28T23:58:50;101604.80;;;-0.70
